Portada
METAR-TAF:

METAR-TAF

Aeroports :

Leconfield, Anglaterra

latitud: 53-52-37N, longitud: 0-26-15W, altitud: 7 m

Observació

L'informe es va fer fa 39 minuts, a les 10:50 UTC
Vent 11 kt del Nord-Est
Temperatura 9°C
Humitat 93%
Pressió 1028 hPa
Visibilitat 10 km o més

METAR: EGXV 091050Z AUTO 05011KT 9999 OVC004/// 09/08 Q1028

Hora: 12:29 (11:29 UTC)


TAF: manca

Observacions i pronòstics meteorològics de més de 4000 aeroports (METAR i TAF).

Les estacions disponibles són els punts grocs i vermells al mapa.

Posi el ratolí al punt desitjat per veure el nom de l'estació.

Feu clic per veure les observacions i els pronòstics meteorològics.

Per canviar el mapa: feu clic els botons verds amb una creu de color negre per apropar; al botó verd amb un guió per allunyar la imatge; o en les fletxes verdes per a mapes adjacents.


METAR-TAF: